createdAt,value
2018-07-14T00:00:34.575Z,99.90
2018-07-14T00:03:03.378Z,99.90
2018-07-14T00:05:32.149Z,99.90
2018-07-14T00:08:00.942Z,99.90
2018-07-14T00:10:29.706Z,99.90
2018-07-14T00:12:58.488Z,99.90
2018-07-14T00:15:27.258Z,99.90
2018-07-14T00:17:56.038Z,99.90
2018-07-14T00:20:24.833Z,99.90
2018-07-14T00:22:53.610Z,99.90
2018-07-14T00:25:27.370Z,99.90
2018-07-14T00:27:56.170Z,99.90
2018-07-14T00:30:24.954Z,99.90
2018-07-14T00:32:53.789Z,99.90
2018-07-14T00:35:22.561Z,99.90
2018-07-14T00:37:51.389Z,99.90
2018-07-14T00:40:20.151Z,99.90
2018-07-14T00:42:48.966Z,99.90
2018-07-14T00:45:24.250Z,99.90
2018-07-14T00:47:53.042Z,99.90
2018-07-14T00:50:21.822Z,99.90
2018-07-14T00:52:50.690Z,99.90
2018-07-14T00:55:19.478Z,99.90
2018-07-14T00:57:48.265Z,99.90
2018-07-14T01:00:17.055Z,99.90
2018-07-14T01:02:45.849Z,99.90
2018-07-14T01:05:14.623Z,99.90
2018-07-14T01:07:43.409Z,99.90
2018-07-14T01:10:12.200Z,99.90
2018-07-14T01:12:40.979Z,99.90
2018-07-14T01:15:09.711Z,99.90
2018-07-14T01:17:38.513Z,99.90
2018-07-14T01:20:07.379Z,99.90
2018-07-14T01:22:36.168Z,99.90
2018-07-14T01:25:05.011Z,99.90
2018-07-14T01:27:33.761Z,99.90
2018-07-14T01:30:02.583Z,99.90
2018-07-14T01:32:31.353Z,99.90
2018-07-14T01:35:00.134Z,99.90
2018-07-14T01:37:28.902Z,99.90
2018-07-14T01:39:57.676Z,99.90
2018-07-14T01:42:26.422Z,99.90
2018-07-14T01:44:55.194Z,99.90
2018-07-14T01:47:23.946Z,99.90
2018-07-14T01:52:21.163Z,99.90
2018-07-14T01:54:49.950Z,99.90
2018-07-14T01:57:18.726Z,99.90
2018-07-14T01:59:47.496Z,99.90
2018-07-14T02:02:16.251Z,99.90
2018-07-14T02:04:45.147Z,99.90
2018-07-14T02:07:14.063Z,99.90
2018-07-14T02:09:42.830Z,99.90
2018-07-14T02:12:11.668Z,99.90
2018-07-14T02:14:40.498Z,99.90
2018-07-14T02:17:09.485Z,99.90
2018-07-14T02:19:38.253Z,99.90
2018-07-14T02:22:07.034Z,99.90
2018-07-14T02:24:35.816Z,99.90
2018-07-14T02:27:04.626Z,99.90
2018-07-14T02:29:33.411Z,99.90
2018-07-14T02:32:02.222Z,99.90
2018-07-14T02:34:30.990Z,99.90
2018-07-14T02:36:59.783Z,99.90
2018-07-14T02:39:28.516Z,99.90
2018-07-14T02:41:57.287Z,99.90
2018-07-14T02:44:26.074Z,99.90
2018-07-14T02:46:54.847Z,99.90
2018-07-14T02:49:23.626Z,99.90
2018-07-14T02:51:52.431Z,99.90
2018-07-14T02:54:21.238Z,99.90
2018-07-14T02:56:50.306Z,99.90
2018-07-14T02:59:19.109Z,99.90
2018-07-14T03:01:48.026Z,99.90
2018-07-14T03:04:16.851Z,99.90
2018-07-14T03:06:45.642Z,99.90
2018-07-14T03:09:14.465Z,99.90
2018-07-14T03:11:43.230Z,99.90
2018-07-14T03:14:12.024Z,99.90
2018-07-14T03:16:40.786Z,99.90
2018-07-14T03:19:09.566Z,99.90
2018-07-14T03:21:38.362Z,99.90
2018-07-14T03:24:07.125Z,99.90
2018-07-14T03:26:35.892Z,99.90
2018-07-14T03:29:04.735Z,99.90
2018-07-14T03:34:01.878Z,99.90
2018-07-14T03:36:30.682Z,99.90
2018-07-14T03:38:59.458Z,99.90
2018-07-14T03:41:28.274Z,99.90
2018-07-14T03:43:57.029Z,99.90
2018-07-14T03:46:25.790Z,99.90
2018-07-14T03:48:54.566Z,99.90
2018-07-14T03:51:23.342Z,99.90
2018-07-14T03:53:52.139Z,99.90
2018-07-14T03:56:20.907Z,99.90
2018-07-14T03:58:50.081Z,99.90
2018-07-14T04:01:18.931Z,99.90
2018-07-14T04:03:47.678Z,99.90
2018-07-14T04:06:16.450Z,99.90
2018-07-14T04:08:45.275Z,99.90
2018-07-14T04:11:14.044Z,99.90
2018-07-14T04:13:42.832Z,99.90
2018-07-14T04:16:11.595Z,99.90
2018-07-14T04:18:40.354Z,99.90
2018-07-14T04:21:09.154Z,99.90
2018-07-14T04:23:37.913Z,99.90
2018-07-14T04:26:06.698Z,99.90
2018-07-14T04:28:35.473Z,99.90
2018-07-14T04:31:04.238Z,99.90
2018-07-14T04:33:33.012Z,99.90
2018-07-14T04:36:01.804Z,99.90
2018-07-14T04:38:30.788Z,99.90
2018-07-14T04:40:59.550Z,99.90
2018-07-14T04:43:28.337Z,99.90
2018-07-14T04:45:57.106Z,99.90
2018-07-14T04:48:25.836Z,99.90
2018-07-14T04:50:54.609Z,99.90
2018-07-14T04:53:23.406Z,99.90
2018-07-14T04:55:52.128Z,99.90
2018-07-14T04:58:20.906Z,99.90
2018-07-14T05:00:49.708Z,99.90
2018-07-14T05:03:18.594Z,99.90
2018-07-14T05:05:47.390Z,99.90
2018-07-14T05:08:16.186Z,99.90
2018-07-14T05:10:44.959Z,99.90
2018-07-14T05:13:13.740Z,99.90
2018-07-14T05:15:42.506Z,99.90
2018-07-14T05:18:11.277Z,99.90
2018-07-14T05:20:40.045Z,99.90
2018-07-14T05:23:08.797Z,99.90
2018-07-14T05:25:37.618Z,99.90
2018-07-14T05:28:06.474Z,99.90
2018-07-14T05:30:35.302Z,99.90
2018-07-14T05:35:32.487Z,99.90
2018-07-14T05:38:01.262Z,99.90
2018-07-14T05:40:30.135Z,99.90
2018-07-14T05:42:59.044Z,99.90
2018-07-14T05:45:28.081Z,99.90
2018-07-14T05:47:56.850Z,99.90
2018-07-14T05:50:25.767Z,99.90
2018-07-14T05:52:54.554Z,99.90
2018-07-14T05:55:23.870Z,99.90
2018-07-14T05:57:52.650Z,99.90
2018-07-14T06:00:21.446Z,99.90
2018-07-14T06:02:50.208Z,99.90
2018-07-14T06:05:19.058Z,99.90
2018-07-14T06:07:47.894Z,99.90
2018-07-14T06:10:16.726Z,99.90
2018-07-14T06:12:45.514Z,99.90
2018-07-14T06:15:14.354Z,99.90
2018-07-14T06:17:43.142Z,99.90
2018-07-14T06:20:11.958Z,99.90
2018-07-14T06:22:40.811Z,99.90
2018-07-14T06:25:09.606Z,99.90
2018-07-14T06:27:38.418Z,99.90
2018-07-14T06:30:08.209Z,99.90
2018-07-14T06:32:36.983Z,99.90
2018-07-14T06:35:05.882Z,99.90
2018-07-14T06:37:34.649Z,99.90
2018-07-14T06:40:03.518Z,99.90
2018-07-14T06:42:32.302Z,99.90
2018-07-14T06:45:01.074Z,99.90
2018-07-14T06:47:29.919Z,99.90
2018-07-14T06:49:58.694Z,99.90
2018-07-14T06:52:27.481Z,99.90
2018-07-14T06:54:56.354Z,99.90
2018-07-14T06:57:25.206Z,99.90
2018-07-14T06:59:54.290Z,99.90
2018-07-14T07:02:23.111Z,99.90
2018-07-14T07:04:51.976Z,99.90
2018-07-14T07:07:20.728Z,99.90
2018-07-14T07:09:49.582Z,99.90
2018-07-14T07:12:18.360Z,99.90
2018-07-14T07:14:47.158Z,99.90
2018-07-14T07:17:15.934Z,99.90
2018-07-14T07:19:44.977Z,99.90
2018-07-14T07:22:13.809Z,99.90
2018-07-14T07:24:42.675Z,99.90
2018-07-14T07:27:11.494Z,99.90
2018-07-14T07:29:40.268Z,99.90
2018-07-14T07:32:09.325Z,99.90
2018-07-14T07:34:38.171Z,99.90
2018-07-14T07:37:07.026Z,99.90
2018-07-14T07:39:35.770Z,99.90
2018-07-14T07:42:04.561Z,99.90
2018-07-14T07:44:33.646Z,99.90
2018-07-14T07:47:02.442Z,99.90
2018-07-14T07:49:31.242Z,99.90
2018-07-14T07:52:00.038Z,99.90
2018-07-14T07:54:28.818Z,99.90
2018-07-14T07:56:57.626Z,99.90
2018-07-14T07:59:26.510Z,99.90
2018-07-14T08:01:55.384Z,99.90
2018-07-14T08:04:24.162Z,99.90
2018-07-14T08:06:52.935Z,99.90
2018-07-14T08:09:21.992Z,99.90
2018-07-14T08:11:50.818Z,99.90
2018-07-14T08:14:19.610Z,99.90
2018-07-14T08:16:48.379Z,99.90
2018-07-14T08:19:17.174Z,99.90
2018-07-14T08:21:46.060Z,99.90
2018-07-14T08:24:14.861Z,99.90
2018-07-14T08:26:43.667Z,99.90
2018-07-14T08:29:12.450Z,99.90
2018-07-14T08:31:41.557Z,99.90
2018-07-14T08:34:10.696Z,99.90
2018-07-14T08:36:39.509Z,99.90
2018-07-14T08:39:08.714Z,99.80
2018-07-14T08:41:37.590Z,98.80
2018-07-14T08:44:06.455Z,97.30
2018-07-14T08:46:35.226Z,97.30
2018-07-14T08:49:04.367Z,96.10
2018-07-14T08:51:33.196Z,94.90
2018-07-14T08:54:01.945Z,94.00
2018-07-14T08:56:30.722Z,92.70
2018-07-14T08:58:59.579Z,92.20
2018-07-14T09:01:28.354Z,91.40
2018-07-14T09:03:57.141Z,90.90
2018-07-14T09:06:25.948Z,88.40
2018-07-14T09:08:54.710Z,86.50
2018-07-14T09:11:23.770Z,87.50
2018-07-14T09:13:52.530Z,85.80
2018-07-14T09:16:21.723Z,83.80
2018-07-14T09:18:50.522Z,82.40
2018-07-14T09:21:19.342Z,80.00
2018-07-14T09:23:48.127Z,78.30
2018-07-14T09:26:16.994Z,80.60
2018-07-14T09:28:45.762Z,79.70
2018-07-14T09:31:14.529Z,78.40
2018-07-14T09:33:43.306Z,77.40
2018-07-14T09:36:12.131Z,77.10
2018-07-14T09:38:40.926Z,78.00
2018-07-14T09:41:09.774Z,79.80
2018-07-14T09:43:38.586Z,81.10
2018-07-14T09:46:07.411Z,81.90
2018-07-14T09:48:36.194Z,82.50
2018-07-14T09:51:04.996Z,83.50
2018-07-14T09:53:33.790Z,83.30
2018-07-14T09:56:02.906Z,82.80
2018-07-14T09:58:31.708Z,82.70
2018-07-14T10:01:05.807Z,81.40
2018-07-14T10:03:34.794Z,81.50
2018-07-14T10:06:03.614Z,81.50
2018-07-14T10:08:32.847Z,82.10
2018-07-14T10:11:01.631Z,83.10
2018-07-14T10:13:30.422Z,80.90
2018-07-14T10:15:59.702Z,83.00
2018-07-14T10:18:28.492Z,84.70
2018-07-14T10:20:57.632Z,83.90
2018-07-14T10:23:26.459Z,82.80
2018-07-14T10:25:55.407Z,83.40
2018-07-14T10:28:24.090Z,83.60
2018-07-14T10:30:52.898Z,83.60
2018-07-14T10:33:21.790Z,85.00
2018-07-14T10:35:50.587Z,84.60
2018-07-14T10:38:19.424Z,85.70
2018-07-14T10:40:48.471Z,84.10
2018-07-14T10:43:17.262Z,84.30
2018-07-14T10:45:46.158Z,85.40
2018-07-14T10:48:14.944Z,85.30
2018-07-14T10:50:43.726Z,84.10
2018-07-14T10:53:12.516Z,84.70
2018-07-14T10:55:41.290Z,84.70
2018-07-14T10:58:10.096Z,84.10
2018-07-14T11:00:38.907Z,84.80
2018-07-14T11:03:07.707Z,85.10
2018-07-14T11:05:36.486Z,83.10
2018-07-14T11:08:05.299Z,82.60
2018-07-14T11:10:34.087Z,83.20
2018-07-14T11:13:03.246Z,83.70
2018-07-14T11:15:32.047Z,83.60
2018-07-14T11:18:00.815Z,83.80
2018-07-14T11:20:29.598Z,83.10
2018-07-14T11:22:58.430Z,81.60
2018-07-14T11:25:27.288Z,82.60
2018-07-14T11:27:56.180Z,81.00
2018-07-14T11:30:26.013Z,80.60
2018-07-14T11:32:54.873Z,79.30
2018-07-14T11:35:23.899Z,79.00
2018-07-14T11:37:53.142Z,77.70
2018-07-14T11:40:22.156Z,77.70
2018-07-14T11:42:51.039Z,78.70
2018-07-14T11:45:19.850Z,78.50
2018-07-14T11:47:48.670Z,78.50
2018-07-14T11:50:17.426Z,78.80
2018-07-14T11:52:46.225Z,79.00
2018-07-14T11:55:15.299Z,76.20
2018-07-14T11:57:44.213Z,76.50
2018-07-14T12:00:15.224Z,76.00
2018-07-14T12:02:44.342Z,76.10
2018-07-14T12:05:13.185Z,74.00
2018-07-14T12:07:42.354Z,75.50
2018-07-14T12:10:11.211Z,74.70
2018-07-14T12:12:40.071Z,76.20
2018-07-14T12:15:09.002Z,75.80
2018-07-14T12:17:37.783Z,75.30
2018-07-14T12:20:07.072Z,74.80
2018-07-14T12:22:35.876Z,73.90
2018-07-14T12:25:05.134Z,72.90
2018-07-14T12:27:34.026Z,71.80
2018-07-14T12:30:03.824Z,72.20
2018-07-14T12:32:33.069Z,72.50
2018-07-14T12:35:02.271Z,72.10
2018-07-14T12:37:31.409Z,69.40
2018-07-14T12:40:00.407Z,68.40
2018-07-14T12:42:29.207Z,69.10
2018-07-14T12:44:58.178Z,69.10
2018-07-14T12:47:26.979Z,66.80
2018-07-14T12:49:55.814Z,66.90
2018-07-14T12:52:24.616Z,65.00
2018-07-14T12:54:54.106Z,66.00
2018-07-14T12:57:22.910Z,65.20
2018-07-14T12:59:51.883Z,64.60
2018-07-14T13:02:20.682Z,63.40
2018-07-14T13:04:49.547Z,61.30
2018-07-14T13:09:47.102Z,56.80
2018-07-14T13:12:15.932Z,57.40
2018-07-14T13:14:44.685Z,57.40
2018-07-14T13:17:13.600Z,57.60
2018-07-14T13:19:42.570Z,57.30
2018-07-14T13:22:11.358Z,56.60
2018-07-14T13:24:40.242Z,55.60
2018-07-14T13:27:09.037Z,54.10
2018-07-14T13:29:37.822Z,53.20
2018-07-14T13:32:06.818Z,52.50
2018-07-14T13:34:35.626Z,51.00
2018-07-14T13:37:04.787Z,49.20
2018-07-14T13:39:33.590Z,49.40
2018-07-14T13:42:02.413Z,48.00
2018-07-14T13:44:31.246Z,48.00
2018-07-14T13:47:00.107Z,47.30
2018-07-14T13:49:28.906Z,46.20
2018-07-14T13:51:57.747Z,45.50
2018-07-14T13:54:26.631Z,45.20
2018-07-14T13:56:55.713Z,44.40
2018-07-14T13:59:24.535Z,43.50
2018-07-14T14:01:53.335Z,44.20
2018-07-14T14:04:22.098Z,44.00
2018-07-14T14:06:50.916Z,44.30
2018-07-14T14:09:19.716Z,44.20
2018-07-14T14:11:48.488Z,43.60
2018-07-14T14:14:17.288Z,43.10
2018-07-14T14:16:46.150Z,42.00
2018-07-14T14:19:14.934Z,41.40
2018-07-14T14:21:44.211Z,41.70
2018-07-14T14:24:13.086Z,42.10
2018-07-14T14:26:41.874Z,41.70
2018-07-14T14:29:10.666Z,42.20
2018-07-14T14:31:40.292Z,42.30
2018-07-14T14:34:09.119Z,41.50
2018-07-14T14:36:38.006Z,41.90
2018-07-14T14:39:07.807Z,42.00
2018-07-14T14:41:37.414Z,42.70
2018-07-14T14:44:06.318Z,42.40
2018-07-14T14:46:35.133Z,42.80
2018-07-14T14:49:04.314Z,42.70
2018-07-14T14:51:33.596Z,41.60
2018-07-14T14:54:02.373Z,41.80
2018-07-14T14:56:31.220Z,40.80
2018-07-14T14:59:00.031Z,40.40
2018-07-14T15:01:28.875Z,41.40
2018-07-14T15:03:57.671Z,41.20
2018-07-14T15:06:26.510Z,42.30
2018-07-14T15:08:55.610Z,41.50
2018-07-14T15:11:24.482Z,41.60
2018-07-14T15:13:53.324Z,41.80
2018-07-14T15:16:22.199Z,40.80
2018-07-14T15:18:51.309Z,40.70
2018-07-14T15:21:20.185Z,40.10
2018-07-14T15:23:49.603Z,40.10
2018-07-14T15:26:18.456Z,39.00
2018-07-14T15:28:47.351Z,39.50
2018-07-14T15:31:16.198Z,39.50
2018-07-14T15:33:44.976Z,39.50
2018-07-14T15:36:13.873Z,40.00
2018-07-14T15:38:42.760Z,41.30
2018-07-14T15:41:11.585Z,40.60
2018-07-14T15:43:41.234Z,39.80
2018-07-14T15:46:10.053Z,39.80
2018-07-14T15:48:39.020Z,40.20
2018-07-14T15:51:07.844Z,40.20
2018-07-14T15:53:36.990Z,40.20
2018-07-14T15:56:06.620Z,39.80
2018-07-14T15:58:35.491Z,39.30
2018-07-14T16:01:04.370Z,39.00
2018-07-14T16:03:33.413Z,39.20
2018-07-14T16:06:02.284Z,39.90
2018-07-14T16:08:31.558Z,39.60
2018-07-14T16:11:00.391Z,39.50
2018-07-14T16:13:29.243Z,39.50
2018-07-14T16:15:58.038Z,39.00
2018-07-14T16:18:26.858Z,39.20
2018-07-14T16:20:55.718Z,39.20
2018-07-14T16:23:24.548Z,41.20
2018-07-14T16:25:53.370Z,41.20
2018-07-14T16:28:22.210Z,41.80
2018-07-14T16:30:51.045Z,41.10
2018-07-14T16:33:20.017Z,43.10
2018-07-14T16:35:49.034Z,43.00
2018-07-14T16:38:18.056Z,43.40
2018-07-14T16:40:47.143Z,43.10
2018-07-14T16:43:15.968Z,43.40
2018-07-14T16:48:13.256Z,44.80
2018-07-14T16:50:42.103Z,45.20
2018-07-14T16:53:10.989Z,46.70
2018-07-14T16:55:39.887Z,46.90
2018-07-14T16:58:08.735Z,48.70
2018-07-14T17:00:37.836Z,48.10
2018-07-14T17:03:13.166Z,49.40
2018-07-14T17:05:41.915Z,49.60
2018-07-14T17:08:10.721Z,49.30
2018-07-14T17:10:39.512Z,48.90
2018-07-14T17:13:08.309Z,49.80
2018-07-14T17:15:37.106Z,51.30
2018-07-14T17:18:05.902Z,50.30
2018-07-14T17:20:34.762Z,48.50
2018-07-14T17:23:03.648Z,48.10
2018-07-14T17:25:32.475Z,49.20
2018-07-14T17:28:01.339Z,48.80
2018-07-14T17:30:30.722Z,49.20
2018-07-14T17:32:59.495Z,49.60
2018-07-14T17:35:28.389Z,50.00
2018-07-14T17:37:57.183Z,50.40
2018-07-14T17:40:25.998Z,50.00
2018-07-14T17:42:54.804Z,50.70
2018-07-14T17:45:23.879Z,50.30
2018-07-14T17:47:52.665Z,50.90
2018-07-14T17:50:21.472Z,51.60
2018-07-14T17:52:50.333Z,52.70
2018-07-14T17:55:19.183Z,53.50
2018-07-14T18:00:16.511Z,54.10
2018-07-14T18:02:45.254Z,54.80
2018-07-14T18:05:14.109Z,55.90
2018-07-14T18:07:42.894Z,56.60
2018-07-14T18:10:11.746Z,57.60
2018-07-14T18:12:40.547Z,58.40
2018-07-14T18:15:09.341Z,59.30
2018-07-14T18:17:38.159Z,60.10
2018-07-14T18:20:07.317Z,61.40
2018-07-14T18:22:36.139Z,62.70
2018-07-14T18:25:04.902Z,63.60
2018-07-14T18:27:33.740Z,64.50
2018-07-14T18:30:02.566Z,65.80
2018-07-14T18:32:31.416Z,65.50
2018-07-14T18:35:00.201Z,65.10
2018-07-14T18:37:29.030Z,65.10
2018-07-14T18:39:57.834Z,65.50
2018-07-14T18:42:26.906Z,65.70
2018-07-14T18:44:55.788Z,66.30
2018-07-14T18:47:24.579Z,66.30
2018-07-14T18:49:53.716Z,66.40
2018-07-14T18:52:22.572Z,66.70
2018-07-14T18:57:19.706Z,68.00
2018-07-14T18:59:48.590Z,69.00
2018-07-14T19:02:17.699Z,70.00
2018-07-14T19:04:46.469Z,71.30
2018-07-14T19:07:15.542Z,72.40
2018-07-14T19:09:44.597Z,73.20
2018-07-14T19:12:13.406Z,74.30
2018-07-14T19:14:42.453Z,74.80
2018-07-14T19:17:11.266Z,75.20
2018-07-14T19:19:40.394Z,75.60
2018-07-14T19:22:09.254Z,76.30
2018-07-14T19:24:38.079Z,76.60
2018-07-14T19:27:06.875Z,77.10
2018-07-14T19:29:35.653Z,77.90
2018-07-14T19:34:32.887Z,77.90
2018-07-14T19:37:01.711Z,78.30
2018-07-14T19:39:30.523Z,79.00
2018-07-14T19:41:59.439Z,80.40
2018-07-14T19:44:28.266Z,80.70
2018-07-14T19:46:57.318Z,81.10
2018-07-14T19:49:26.128Z,80.50
2018-07-14T19:51:54.910Z,81.20
2018-07-14T19:54:23.714Z,80.20
2018-07-14T19:56:52.528Z,80.70
2018-07-14T19:59:21.339Z,81.10
2018-07-14T20:01:50.202Z,81.40
2018-07-14T20:04:19.010Z,81.70
2018-07-14T20:06:47.821Z,82.00
2018-07-14T20:09:16.632Z,81.50
2018-07-14T20:11:45.446Z,82.30
2018-07-14T20:14:14.231Z,82.50
2018-07-14T20:16:43.054Z,83.10
2018-07-14T20:19:11.966Z,83.30
2018-07-14T20:21:41.018Z,83.20
2018-07-14T20:24:10.181Z,83.10
2018-07-14T20:26:39.244Z,82.90
2018-07-14T20:29:08.087Z,82.90
2018-07-14T20:31:36.940Z,83.00
2018-07-14T20:34:06.036Z,83.40
2018-07-14T20:36:34.769Z,83.40
2018-07-14T20:39:04.962Z,83.50
2018-07-14T20:41:33.879Z,83.70
2018-07-14T20:44:02.614Z,83.60
2018-07-14T20:46:31.412Z,84.20
2018-07-14T20:49:00.788Z,84.80
2018-07-14T20:51:29.583Z,85.60
2018-07-14T20:53:58.398Z,86.40
2018-07-14T20:56:27.514Z,87.30
2018-07-14T20:58:56.344Z,88.10
2018-07-14T21:01:25.199Z,88.80
2018-07-14T21:03:53.994Z,89.60
2018-07-14T21:06:22.795Z,90.40
2018-07-14T21:08:51.577Z,90.90
2018-07-14T21:11:20.319Z,91.50
2018-07-14T21:13:49.370Z,92.20
2018-07-14T21:16:18.495Z,92.90
2018-07-14T21:18:47.630Z,93.80
2018-07-14T21:21:16.645Z,94.60
2018-07-14T21:23:45.345Z,95.50
2018-07-14T21:26:14.150Z,96.50
2018-07-14T21:28:42.946Z,96.80
2018-07-14T21:31:11.736Z,97.50
2018-07-14T21:33:40.528Z,98.40
2018-07-14T21:36:09.638Z,99.20
2018-07-14T21:38:38.853Z,99.90
2018-07-14T21:41:07.650Z,99.90
2018-07-14T21:43:36.424Z,99.90
2018-07-14T21:46:05.664Z,99.90
2018-07-14T21:48:34.771Z,99.90
2018-07-14T21:51:03.804Z,99.90
2018-07-14T21:53:32.723Z,99.90
2018-07-14T21:56:01.531Z,99.90
2018-07-14T21:58:30.313Z,99.90
2018-07-14T22:02:05.950Z,99.90
2018-07-14T22:04:36.019Z,99.90
2018-07-14T22:07:04.854Z,99.90
2018-07-14T22:09:33.730Z,99.90
2018-07-14T22:12:02.706Z,99.90
2018-07-14T22:14:31.478Z,99.90
2018-07-14T22:17:00.289Z,99.90
2018-07-14T22:19:29.082Z,99.90
2018-07-14T22:21:57.865Z,99.90
2018-07-14T22:24:26.645Z,99.90
2018-07-14T22:29:23.938Z,99.90
2018-07-14T22:31:52.758Z,99.90
2018-07-14T22:34:21.512Z,99.90
2018-07-14T22:36:50.346Z,99.90
2018-07-14T22:39:19.143Z,99.90
2018-07-14T22:41:49.144Z,99.90
2018-07-14T22:44:18.836Z,99.90
2018-07-14T22:46:47.794Z,99.90
2018-07-14T22:49:16.608Z,99.90
2018-07-14T22:51:45.378Z,99.90
2018-07-14T22:54:14.157Z,99.90
2018-07-14T22:56:42.943Z,99.90
2018-07-14T23:01:40.143Z,99.90
2018-07-14T23:04:08.978Z,99.90
2018-07-14T23:06:37.754Z,99.90
2018-07-14T23:09:07.739Z,99.90
2018-07-14T23:11:36.527Z,99.90
2018-07-14T23:14:05.342Z,99.90
2018-07-14T23:16:34.178Z,99.90
2018-07-14T23:19:02.950Z,99.90
2018-07-14T23:21:31.747Z,99.90
2018-07-14T23:24:00.582Z,99.90
2018-07-14T23:26:29.350Z,99.90
2018-07-14T23:28:58.162Z,99.90
2018-07-14T23:31:26.967Z,99.90
2018-07-14T23:33:55.755Z,99.90
2018-07-14T23:36:24.542Z,99.90
2018-07-14T23:38:53.354Z,99.90
2018-07-14T23:41:22.130Z,99.90
2018-07-14T23:43:51.474Z,99.90
2018-07-14T23:46:20.401Z,99.90
2018-07-14T23:48:49.163Z,99.90
2018-07-14T23:51:17.943Z,99.90
2018-07-14T23:53:46.733Z,99.90
2018-07-14T23:56:15.612Z,99.90
2018-07-14T23:58:44.333Z,99.90
